sensor_id;sensor_type;location;lat;lon;timestamp;pressure;altitude;pressure_sealevel;temperature;humidity
61337;BME280;47212;41.326;2.104;2023-02-28T00:04:05;100937.31;;;7.97;39.54
61337;BME280;47212;41.326;2.104;2023-02-28T00:09:07;100947.81;;;7.94;41.36
61337;BME280;47212;41.326;2.104;2023-02-28T00:14:09;100971.03;;;7.90;42.93
61337;BME280;47212;41.326;2.104;2023-02-28T00:19:11;100950.91;;;7.86;43.32
61337;BME280;47212;41.326;2.104;2023-02-28T00:24:15;100950.78;;;7.81;44.61
61337;BME280;47212;41.326;2.104;2023-02-28T00:29:17;100955.00;;;7.77;43.50
61337;BME280;47212;41.326;2.104;2023-02-28T00:34:18;100946.78;;;7.72;43.48
61337;BME280;47212;41.326;2.104;2023-02-28T00:39:21;100939.59;;;7.65;45.06
61337;BME280;47212;41.326;2.104;2023-02-28T00:44:23;100933.84;;;7.62;44.44
61337;BME280;47212;41.326;2.104;2023-02-28T00:49:26;100938.31;;;7.56;45.33
61337;BME280;47212;41.326;2.104;2023-02-28T00:54:28;100905.47;;;7.53;45.23
61337;BME280;47212;41.326;2.104;2023-02-28T00:59:30;100873.69;;;7.48;45.88
61337;BME280;47212;41.326;2.104;2023-02-28T01:04:32;100865.44;;;7.43;46.61
61337;BME280;47212;41.326;2.104;2023-02-28T01:09:35;100850.38;;;7.35;47.04
61337;BME280;47212;41.326;2.104;2023-02-28T01:14:38;100840.88;;;7.33;47.16
61337;BME280;47212;41.326;2.104;2023-02-28T01:19:40;100837.22;;;7.27;47.22
61337;BME280;47212;41.326;2.104;2023-02-28T01:24:44;100843.69;;;7.26;47.22
61337;BME280;47212;41.326;2.104;2023-02-28T01:29:50;100839.81;;;7.22;47.95
61337;BME280;47212;41.326;2.104;2023-02-28T01:34:52;100840.06;;;7.21;47.99
61337;BME280;47212;41.326;2.104;2023-02-28T01:40:07;100847.72;;;7.24;48.98
61337;BME280;47212;41.326;2.104;2023-02-28T01:45:26;100842.28;;;7.24;47.72
61337;BME280;47212;41.326;2.104;2023-02-28T01:50:31;100842.19;;;7.19;46.00
61337;BME280;47212;41.326;2.104;2023-02-28T01:55:37;100856.44;;;7.14;45.80
61337;BME280;47212;41.326;2.104;2023-02-28T02:05:17;100839.72;;;7.06;46.26
61337;BME280;47212;41.326;2.104;2023-02-28T02:10:41;100838.91;;;7.05;46.70
61337;BME280;47212;41.326;2.104;2023-02-28T02:21:35;100847.50;;;7.02;45.92
61337;BME280;47212;41.326;2.104;2023-02-28T02:26:55;100847.25;;;7.03;45.27
61337;BME280;47212;41.326;2.104;2023-02-28T02:32:09;100846.44;;;7.03;45.34
61337;BME280;47212;41.326;2.104;2023-02-28T02:43:25;100840.19;;;7.02;45.31
61337;BME280;47212;41.326;2.104;2023-02-28T02:48:32;100836.44;;;7.03;45.86
61337;BME280;47212;41.326;2.104;2023-02-28T02:53:40;100843.03;;;6.96;46.11
61337;BME280;47212;41.326;2.104;2023-02-28T02:58:44;100848.19;;;6.97;46.05
61337;BME280;47212;41.326;2.104;2023-02-28T03:03:47;100881.50;;;6.98;45.02
61337;BME280;47212;41.326;2.104;2023-02-28T03:08:50;100875.25;;;6.97;44.95
61337;BME280;47212;41.326;2.104;2023-02-28T03:29:39;100876.06;;;6.86;44.27
61337;BME280;47212;41.326;2.104;2023-02-28T03:34:48;100884.41;;;6.85;43.72
61337;BME280;47212;41.326;2.104;2023-02-28T03:39:59;100890.88;;;6.84;44.07
61337;BME280;47212;41.326;2.104;2023-02-28T03:45:08;100908.88;;;6.78;44.40
61337;BME280;47212;41.326;2.104;2023-02-28T03:55:20;100915.94;;;6.79;44.18
61337;BME280;47212;41.326;2.104;2023-02-28T04:00:35;100916.16;;;6.78;43.30
61337;BME280;47212;41.326;2.104;2023-02-28T04:05:52;100913.69;;;6.76;43.85
61337;BME280;47212;41.326;2.104;2023-02-28T04:11:16;100917.91;;;6.72;44.26
61337;BME280;47212;41.326;2.104;2023-02-28T04:16:20;100910.16;;;6.76;44.40
61337;BME280;47212;41.326;2.104;2023-02-28T04:21:37;100922.28;;;6.73;44.29
61337;BME280;47212;41.326;2.104;2023-02-28T04:26:45;100924.84;;;6.68;43.40
61337;BME280;47212;41.326;2.104;2023-02-28T04:31:48;100945.31;;;6.64;44.51
61337;BME280;47212;41.326;2.104;2023-02-28T04:36:50;100945.75;;;6.61;44.15
61337;BME280;47212;41.326;2.104;2023-02-28T04:42:13;100953.75;;;6.56;44.38
61337;BME280;47212;41.326;2.104;2023-02-28T04:47:15;100950.44;;;6.54;44.20
61337;BME280;47212;41.326;2.104;2023-02-28T04:52:18;100945.03;;;6.54;44.43
61337;BME280;47212;41.326;2.104;2023-02-28T04:57:20;100949.41;;;6.55;44.51
61337;BME280;47212;41.326;2.104;2023-02-28T05:09:12;100954.31;;;6.46;44.39
61337;BME280;47212;41.326;2.104;2023-02-28T05:14:14;100966.41;;;6.44;44.58
61337;BME280;47212;41.326;2.104;2023-02-28T05:19:17;100972.72;;;6.37;44.71
61337;BME280;47212;41.326;2.104;2023-02-28T05:24:23;100981.53;;;6.33;45.06
61337;BME280;47212;41.326;2.104;2023-02-28T05:29:26;100992.34;;;6.33;45.33
61337;BME280;47212;41.326;2.104;2023-02-28T05:34:28;101005.03;;;6.32;45.16
61337;BME280;47212;41.326;2.104;2023-02-28T05:39:30;101013.59;;;6.29;45.46
61337;BME280;47212;41.326;2.104;2023-02-28T05:44:32;101002.19;;;6.27;45.35
61337;BME280;47212;41.326;2.104;2023-02-28T05:49:34;101011.94;;;6.28;45.83
61337;BME280;47212;41.326;2.104;2023-02-28T05:54:36;100998.19;;;6.30;46.24
61337;BME280;47212;41.326;2.104;2023-02-28T05:59:38;101000.69;;;6.31;45.62
61337;BME280;47212;41.326;2.104;2023-02-28T06:04:42;101016.44;;;6.34;46.44
61337;BME280;47212;41.326;2.104;2023-02-28T06:09:45;101023.06;;;6.38;46.36
61337;BME280;47212;41.326;2.104;2023-02-28T06:14:47;101022.13;;;6.45;46.19
61337;BME280;47212;41.326;2.104;2023-02-28T06:19:49;101023.31;;;6.49;46.70
61337;BME280;47212;41.326;2.104;2023-02-28T06:24:51;101022.03;;;6.51;46.04
61337;BME280;47212;41.326;2.104;2023-02-28T06:29:55;101010.41;;;6.51;45.34
61337;BME280;47212;41.326;2.104;2023-02-28T06:34:59;101011.47;;;6.50;46.31
61337;BME280;47212;41.326;2.104;2023-02-28T06:40:02;101013.09;;;6.51;45.93
61337;BME280;47212;41.326;2.104;2023-02-28T06:45:05;101010.88;;;6.48;45.63
61337;BME280;47212;41.326;2.104;2023-02-28T06:50:12;101002.97;;;6.46;45.77
61337;BME280;47212;41.326;2.104;2023-02-28T06:55:14;101023.19;;;6.44;45.61
61337;BME280;47212;41.326;2.104;2023-02-28T07:00:17;101027.84;;;6.36;45.03
61337;BME280;47212;41.326;2.104;2023-02-28T07:05:19;101022.91;;;6.33;45.20
61337;BME280;47212;41.326;2.104;2023-02-28T07:10:21;101030.66;;;6.30;45.18
61337;BME280;47212;41.326;2.104;2023-02-28T07:15:23;101046.03;;;6.29;45.68
61337;BME280;47212;41.326;2.104;2023-02-28T07:20:25;101054.38;;;6.28;45.77
61337;BME280;47212;41.326;2.104;2023-02-28T07:25:28;101062.72;;;6.26;45.22
61337;BME280;47212;41.326;2.104;2023-02-28T07:30:30;101067.66;;;6.29;45.83
61337;BME280;47212;41.326;2.104;2023-02-28T07:35:33;101083.28;;;6.27;45.58
61337;BME280;47212;41.326;2.104;2023-02-28T07:40:35;101098.09;;;6.25;45.47
61337;BME280;47212;41.326;2.104;2023-02-28T07:45:38;101112.06;;;6.22;45.76
61337;BME280;47212;41.326;2.104;2023-02-28T07:50:43;101110.63;;;6.19;45.90
61337;BME280;47212;41.326;2.104;2023-02-28T07:55:45;101117.69;;;6.20;45.73
61337;BME280;47212;41.326;2.104;2023-02-28T08:00:47;101123.09;;;6.20;45.96
61337;BME280;47212;41.326;2.104;2023-02-28T08:05:50;101127.88;;;6.18;46.47
61337;BME280;47212;41.326;2.104;2023-02-28T08:10:53;101150.56;;;6.17;46.41
61337;BME280;47212;41.326;2.104;2023-02-28T08:15:58;101185.69;;;6.17;47.04
61337;BME280;47212;41.326;2.104;2023-02-28T08:21:06;101182.84;;;6.12;48.97
61337;BME280;47212;41.326;2.104;2023-02-28T08:26:08;101181.00;;;6.06;48.89
61337;BME280;47212;41.326;2.104;2023-02-28T08:31:15;101176.47;;;6.00;49.34
61337;BME280;47212;41.326;2.104;2023-02-28T08:36:20;101150.72;;;5.97;48.47
61337;BME280;47212;41.326;2.104;2023-02-28T08:41:22;101168.97;;;6.02;48.79
61337;BME280;47212;41.326;2.104;2023-02-28T08:46:24;101164.59;;;6.07;48.66
61337;BME280;47212;41.326;2.104;2023-02-28T08:51:26;101173.69;;;6.13;48.48
61337;BME280;47212;41.326;2.104;2023-02-28T08:56:30;101164.22;;;6.22;47.77
61337;BME280;47212;41.326;2.104;2023-02-28T09:01:32;101192.03;;;6.29;47.58
61337;BME280;47212;41.326;2.104;2023-02-28T09:06:35;101181.53;;;6.39;47.81
61337;BME280;47212;41.326;2.104;2023-02-28T09:11:37;101207.22;;;6.49;47.22
61337;BME280;47212;41.326;2.104;2023-02-28T09:16:39;101191.53;;;6.57;47.38
61337;BME280;47212;41.326;2.104;2023-02-28T09:21:42;101206.63;;;6.65;46.96
61337;BME280;47212;41.326;2.104;2023-02-28T09:26:44;101237.00;;;6.67;46.43
61337;BME280;47212;41.326;2.104;2023-02-28T09:32:05;101251.28;;;6.74;46.25
61337;BME280;47212;41.326;2.104;2023-02-28T09:37:07;101254.88;;;6.86;47.11
61337;BME280;47212;41.326;2.104;2023-02-28T09:42:21;101264.59;;;6.94;46.29
61337;BME280;47212;41.326;2.104;2023-02-28T09:47:45;101264.69;;;7.06;46.30
61337;BME280;47212;41.326;2.104;2023-02-28T09:52:50;101262.72;;;7.13;46.79
61337;BME280;47212;41.326;2.104;2023-02-28T09:57:54;101269.47;;;7.22;47.01
61337;BME280;47212;41.326;2.104;2023-02-28T10:03:27;101262.69;;;7.31;46.70
61337;BME280;47212;41.326;2.104;2023-02-28T10:09:03;101253.34;;;7.45;46.81
61337;BME280;47212;41.326;2.104;2023-02-28T10:14:18;101246.69;;;7.59;45.21
61337;BME280;47212;41.326;2.104;2023-02-28T10:20:10;101263.56;;;7.73;45.64
61337;BME280;47212;41.326;2.104;2023-02-28T10:24:55;101270.84;;;7.91;45.59
61337;BME280;47212;41.326;2.104;2023-02-28T10:30:03;101295.88;;;8.05;44.73
61337;BME280;47212;41.326;2.104;2023-02-28T10:35:16;101296.25;;;8.20;44.61
61337;BME280;47212;41.326;2.104;2023-02-28T10:45:27;101299.03;;;8.55;44.29
61337;BME280;47212;41.326;2.104;2023-02-28T10:50:44;101305.78;;;8.76;42.80
61337;BME280;47212;41.326;2.104;2023-02-28T11:06:30;101327.09;;;9.19;43.46
61337;BME280;47212;41.326;2.104;2023-02-28T11:11:46;101326.97;;;9.25;42.47
61337;BME280;47212;41.326;2.104;2023-02-28T11:16:49;101337.72;;;9.32;43.22
61337;BME280;47212;41.326;2.104;2023-02-28T11:21:59;101343.25;;;9.37;43.26
61337;BME280;47212;41.326;2.104;2023-02-28T11:27:03;101341.00;;;9.34;43.78
61337;BME280;47212;41.326;2.104;2023-02-28T11:32:25;101346.69;;;9.33;42.70
61337;BME280;47212;41.326;2.104;2023-02-28T11:37:31;101339.38;;;9.33;43.30
61337;BME280;47212;41.326;2.104;2023-02-28T11:53:14;101354.81;;;9.44;42.84
61337;BME280;47212;41.326;2.104;2023-02-28T12:03:34;101336.47;;;9.63;42.96
61337;BME280;47212;41.326;2.104;2023-02-28T12:19:54;101299.31;;;10.26;42.22
61337;BME280;47212;41.326;2.104;2023-02-28T12:30:22;101293.75;;;10.88;42.23
61337;BME280;47212;41.326;2.104;2023-02-28T12:35:57;101290.28;;;11.14;40.59
61337;BME280;47212;41.326;2.104;2023-02-28T12:41:11;101281.69;;;11.44;40.18
61337;BME280;47212;41.326;2.104;2023-02-28T12:46:32;101273.03;;;11.74;39.66
61337;BME280;47212;41.326;2.104;2023-02-28T12:51:39;101268.41;;;12.01;41.23
61337;BME280;47212;41.326;2.104;2023-02-28T12:56:56;101271.91;;;12.24;40.06
61337;BME280;47212;41.326;2.104;2023-02-28T13:13:03;101277.44;;;12.34;40.15
61337;BME280;47212;41.326;2.104;2023-02-28T13:18:30;101273.69;;;12.40;38.92
61337;BME280;47212;41.326;2.104;2023-02-28T13:29:02;101269.06;;;12.88;37.77
61337;BME280;47212;41.326;2.104;2023-02-28T13:34:16;101272.88;;;12.82;36.73
61337;BME280;47212;41.326;2.104;2023-02-28T13:39:56;101274.50;;;12.83;36.97
61337;BME280;47212;41.326;2.104;2023-02-28T14:06:22;101289.81;;;14.49;34.97
61337;BME280;47212;41.326;2.104;2023-02-28T14:11:34;101285.16;;;14.65;35.19
61337;BME280;47212;41.326;2.104;2023-02-28T14:16:39;101287.88;;;14.70;36.63
61337;BME280;47212;41.326;2.104;2023-02-28T14:33:35;101292.56;;;14.44;34.32
61337;BME280;47212;41.326;2.104;2023-02-28T14:38:14;101300.78;;;14.44;34.81
61337;BME280;47212;41.326;2.104;2023-02-28T14:43:22;101297.19;;;14.39;35.11
61337;BME280;47212;41.326;2.104;2023-02-28T14:48:31;101294.72;;;14.37;34.98
61337;BME280;47212;41.326;2.104;2023-02-28T14:53:36;101298.84;;;14.29;36.58
61337;BME280;47212;41.326;2.104;2023-02-28T14:58:39;101294.72;;;14.01;36.44
61337;BME280;47212;41.326;2.104;2023-02-28T15:03:41;101290.00;;;13.82;34.55
61337;BME280;47212;41.326;2.104;2023-02-28T15:09:07;101302.28;;;13.74;35.21
61337;BME280;47212;41.326;2.104;2023-02-28T15:14:15;101302.25;;;13.64;36.31
61337;BME280;47212;41.326;2.104;2023-02-28T15:19:20;101304.44;;;13.57;37.14
61337;BME280;47212;41.326;2.104;2023-02-28T15:29:45;101317.25;;;13.51;36.22
61337;BME280;47212;41.326;2.104;2023-02-28T15:34:48;101311.56;;;13.63;37.59
61337;BME280;47212;41.326;2.104;2023-02-28T15:39:52;101315.97;;;13.79;37.09
61337;BME280;47212;41.326;2.104;2023-02-28T15:44:55;101310.56;;;13.94;37.35
61337;BME280;47212;41.326;2.104;2023-02-28T15:50:06;101314.69;;;14.02;37.94
61337;BME280;47212;41.326;2.104;2023-02-28T15:55:22;101314.97;;;14.06;36.65
61337;BME280;47212;41.326;2.104;2023-02-28T16:00:26;101319.34;;;14.12;37.58
61337;BME280;47212;41.326;2.104;2023-02-28T16:05:30;101324.84;;;14.12;37.17
61337;BME280;47212;41.326;2.104;2023-02-28T16:10:33;101324.81;;;14.07;37.19
61337;BME280;47212;41.326;2.104;2023-02-28T16:15:38;101324.28;;;14.05;37.20
61337;BME280;47212;41.326;2.104;2023-02-28T16:20:44;101325.91;;;14.06;37.23
61337;BME280;47212;41.326;2.104;2023-02-28T16:25:46;101322.91;;;13.97;37.23
61337;BME280;47212;41.326;2.104;2023-02-28T16:30:51;101331.38;;;13.95;36.93
61337;BME280;47212;41.326;2.104;2023-02-28T16:35:54;101343.97;;;13.96;36.98
61337;BME280;47212;41.326;2.104;2023-02-28T16:40:58;101335.75;;;13.96;36.82
61337;BME280;47212;41.326;2.104;2023-02-28T16:46:01;101341.50;;;13.95;37.34
61337;BME280;47212;41.326;2.104;2023-02-28T16:51:05;101340.13;;;13.87;37.55
61337;BME280;47212;41.326;2.104;2023-02-28T16:56:23;101338.41;;;13.81;36.19
61337;BME280;47212;41.326;2.104;2023-02-28T17:01:27;101335.94;;;13.75;37.30
61337;BME280;47212;41.326;2.104;2023-02-28T17:06:31;101342.72;;;13.57;37.33
61337;BME280;47212;41.326;2.104;2023-02-28T17:11:41;101343.78;;;13.46;37.28
61337;BME280;47212;41.326;2.104;2023-02-28T17:16:43;101354.66;;;13.35;35.11
61337;BME280;47212;41.326;2.104;2023-02-28T17:21:45;101357.91;;;13.27;37.93
61337;BME280;47212;41.326;2.104;2023-02-28T17:26:48;101364.13;;;13.18;37.82
61337;BME280;47212;41.326;2.104;2023-02-28T17:31:50;101366.50;;;13.09;38.51
61337;BME280;47212;41.326;2.104;2023-02-28T17:36:53;101379.84;;;13.00;38.54
61337;BME280;47212;41.326;2.104;2023-02-28T17:41:56;101381.38;;;12.91;39.56
61337;BME280;47212;41.326;2.104;2023-02-28T17:47:03;101387.91;;;12.85;40.71
61337;BME280;47212;41.326;2.104;2023-02-28T17:52:12;101402.56;;;12.74;42.57
61337;BME280;47212;41.326;2.104;2023-02-28T17:57:15;101407.13;;;12.63;42.89
61337;BME280;47212;41.326;2.104;2023-02-28T18:02:18;101418.25;;;12.57;43.68
61337;BME280;47212;41.326;2.104;2023-02-28T18:07:21;101426.16;;;12.53;43.87
61337;BME280;47212;41.326;2.104;2023-02-28T18:12:25;101443.06;;;12.50;44.32
61337;BME280;47212;41.326;2.104;2023-02-28T18:17:28;101440.28;;;12.45;46.54
61337;BME280;47212;41.326;2.104;2023-02-28T18:22:31;101445.16;;;12.43;45.11
61337;BME280;47212;41.326;2.104;2023-02-28T18:27:35;101451.13;;;12.40;44.89
61337;BME280;47212;41.326;2.104;2023-02-28T18:32:37;101460.94;;;12.36;44.76
61337;BME280;47212;41.326;2.104;2023-02-28T18:37:39;101465.25;;;12.32;42.92
61337;BME280;47212;41.326;2.104;2023-02-28T18:42:41;101465.75;;;12.29;41.21
61337;BME280;47212;41.326;2.104;2023-02-28T18:47:43;101466.28;;;12.26;41.05
61337;BME280;47212;41.326;2.104;2023-02-28T18:52:45;101465.38;;;12.20;40.04
61337;BME280;47212;41.326;2.104;2023-02-28T18:57:47;101474.09;;;12.17;39.89
61337;BME280;47212;41.326;2.104;2023-02-28T19:02:50;101468.22;;;12.08;36.49
61337;BME280;47212;41.326;2.104;2023-02-28T19:07:52;101482.63;;;12.04;39.31
61337;BME280;47212;41.326;2.104;2023-02-28T19:12:54;101485.50;;;11.92;38.41
61337;BME280;47212;41.326;2.104;2023-02-28T19:17:56;101480.97;;;11.81;38.40
61337;BME280;47212;41.326;2.104;2023-02-28T19:22:59;101487.59;;;11.68;37.26
61337;BME280;47212;41.326;2.104;2023-02-28T19:28:02;101486.63;;;11.58;37.39
61337;BME280;47212;41.326;2.104;2023-02-28T19:33:04;101488.13;;;11.48;37.26
61337;BME280;47212;41.326;2.104;2023-02-28T19:38:07;101486.91;;;11.39;37.15
61337;BME280;47212;41.326;2.104;2023-02-28T19:43:12;101483.53;;;11.32;36.67
61337;BME280;47212;41.326;2.104;2023-02-28T19:48:14;101487.72;;;11.23;37.08
61337;BME280;47212;41.326;2.104;2023-02-28T19:53:16;101484.56;;;11.14;36.79
61337;BME280;47212;41.326;2.104;2023-02-28T19:58:19;101485.81;;;11.07;36.66
61337;BME280;47212;41.326;2.104;2023-02-28T20:03:22;101496.38;;;11.03;37.26
61337;BME280;47212;41.326;2.104;2023-02-28T20:08:28;101489.44;;;10.96;36.85
61337;BME280;47212;41.326;2.104;2023-02-28T20:13:31;101489.84;;;10.88;36.83
61337;BME280;47212;41.326;2.104;2023-02-28T20:18:34;101488.09;;;10.81;37.16
61337;BME280;47212;41.326;2.104;2023-02-28T20:23:39;101490.16;;;10.74;37.12
61337;BME280;47212;41.326;2.104;2023-02-28T20:28:42;101491.88;;;10.64;37.23
61337;BME280;47212;41.326;2.104;2023-02-28T20:33:47;101491.94;;;10.52;36.87
61337;BME280;47212;41.326;2.104;2023-02-28T20:38:50;101492.31;;;10.44;37.38
61337;BME280;47212;41.326;2.104;2023-02-28T20:43:54;101504.06;;;10.33;37.11
61337;BME280;47212;41.326;2.104;2023-02-28T20:48:59;101497.59;;;10.22;37.38
61337;BME280;47212;41.326;2.104;2023-02-28T20:54:01;101505.25;;;10.13;37.22
61337;BME280;47212;41.326;2.104;2023-02-28T20:59:06;101516.53;;;10.05;37.38
61337;BME280;47212;41.326;2.104;2023-02-28T21:04:08;101507.66;;;9.98;37.24
61337;BME280;47212;41.326;2.104;2023-02-28T21:09:13;101517.25;;;9.89;37.26
61337;BME280;47212;41.326;2.104;2023-02-28T21:14:37;101516.81;;;9.80;36.43
61337;BME280;47212;41.326;2.104;2023-02-28T21:19:40;101515.03;;;9.74;37.59
61337;BME280;47212;41.326;2.104;2023-02-28T21:24:42;101523.66;;;9.71;37.87
61337;BME280;47212;41.326;2.104;2023-02-28T21:29:44;101523.19;;;9.63;37.21
61337;BME280;47212;41.326;2.104;2023-02-28T21:34:47;101515.41;;;9.54;36.39
61337;BME280;47212;41.326;2.104;2023-02-28T21:39:50;101520.69;;;9.49;37.66
61337;BME280;47212;41.326;2.104;2023-02-28T21:44:52;101508.28;;;9.42;37.85
61337;BME280;47212;41.326;2.104;2023-02-28T21:49:55;101514.78;;;9.29;37.27
61337;BME280;47212;41.326;2.104;2023-02-28T21:54:57;101524.69;;;9.23;37.61
61337;BME280;47212;41.326;2.104;2023-02-28T22:00:00;101517.72;;;9.16;37.97
61337;BME280;47212;41.326;2.104;2023-02-28T22:05:12;101522.44;;;9.09;37.51
61337;BME280;47212;41.326;2.104;2023-02-28T22:10:15;101516.75;;;8.99;38.23
61337;BME280;47212;41.326;2.104;2023-02-28T22:15:19;101521.44;;;8.91;38.52
61337;BME280;47212;41.326;2.104;2023-02-28T22:20:22;101530.75;;;8.84;38.12
61337;BME280;47212;41.326;2.104;2023-02-28T22:25:24;101527.06;;;8.78;38.95
61337;BME280;47212;41.326;2.104;2023-02-28T22:30:32;101532.97;;;8.75;38.29
61337;BME280;47212;41.326;2.104;2023-02-28T22:35:34;101526.81;;;8.68;38.52
61337;BME280;47212;41.326;2.104;2023-02-28T22:40:37;101521.38;;;8.68;38.55
61337;BME280;47212;41.326;2.104;2023-02-28T22:45:40;101517.66;;;8.62;38.98
61337;BME280;47212;41.326;2.104;2023-02-28T22:50:42;101522.13;;;8.57;38.64
61337;BME280;47212;41.326;2.104;2023-02-28T22:55:44;101529.06;;;8.53;39.48
61337;BME280;47212;41.326;2.104;2023-02-28T23:00:46;101528.47;;;8.51;39.18
61337;BME280;47212;41.326;2.104;2023-02-28T23:05:55;101536.72;;;8.44;39.13
61337;BME280;47212;41.326;2.104;2023-02-28T23:10:57;101519.22;;;8.40;39.53
61337;BME280;47212;41.326;2.104;2023-02-28T23:16:03;101532.44;;;8.37;38.87
61337;BME280;47212;41.326;2.104;2023-02-28T23:21:05;101540.63;;;8.30;39.57
61337;BME280;47212;41.326;2.104;2023-02-28T23:26:07;101532.34;;;8.25;39.34
61337;BME280;47212;41.326;2.104;2023-02-28T23:31:09;101530.75;;;8.17;39.53
61337;BME280;47212;41.326;2.104;2023-02-28T23:36:13;101539.13;;;8.16;39.75
61337;BME280;47212;41.326;2.104;2023-02-28T23:41:16;101535.66;;;8.09;39.40
61337;BME280;47212;41.326;2.104;2023-02-28T23:46:20;101540.09;;;8.03;40.04
61337;BME280;47212;41.326;2.104;2023-02-28T23:51:22;101542.22;;;8.01;39.86
61337;BME280;47212;41.326;2.104;2023-02-28T23:56:25;101546.44;;;7.97;40.26
